Swift Current Airport
CYYN : now visible

Aeroporto :











RITROVATECI SU...

 
LOGIN :

Iscrizione | Disclaimer

   EN    FR    IT 

 









Sommario :    VFR   VFR Marginale   IFR   IFR Intensivo   IFR Molto Intensivo
Visibilità : 
Base nubi : 
>= 8 km
>= 3000ft
5 / 8 km
1000 / 3000 ft
1500m / 5 km
500 / 1000 ft
800 / 1500m
200 / 500 ft
< 800m
< 200 ft
Simboli :   Temporali  Nebbia  Neve Forte  Precipitazioni Forti  Vento > 20 kt






- Altitudine del aeroporto : 2680 ft
- Codice IATA : YYN


CYYN - Swift Current

ULTIMO METAR :
  • 250700Z AUTO 22012KT 9SM BKN130 02/M01 A2966 RMK ICG SLP072

METARs OBSOLETI :
  • 250600Z AUTO 21013KT 9SM BKN085 02/M01 A2967 RMK ICG SLP076
  • 250500Z AUTO 20012G17KT 9SM BKN070 OVC083 02/M01 A2967 RMK ICG SLP075

TAF TAF CYYN
Valido dal 25 a 06 ore il 25 a 18 ore UTC


250540Z 2506/2518 21012KT P6SM BKN070 OVC140
FM251100 25015KT P6SM FEW015 SCT140
TEMPO 2511/2514 BKN015 BKN140
FM251400 25015G25KT P6SM SCT006 OVC015
TEMPO 2514/2516 2SM -SHSNRA BR OVC006
FM251600 29015G25KT 1SM -SN VV006
TEMPO 2516/2518 3SM -SN SCT006 OVC015 RMK FCST BASED ON AUTO OBS. NXT FCST BY 251200Z



MetMap, La meteo Aeronautica in un colpo d'occhio ! - Copyright ORBIFLY Dicembre 2007 - Disclaimer

ORBIFLY MET'MAP TEAM :

Programmazione e sviluppo : Alexandra Zaïnal
Concezione : Baudouin d'Aumeries
Aiuto per la programmazione : Marc-Olivier Méhu
Supporto tecnico e logistico : Manuel Goepfert
Aiuto per la traduzione : Arnaldo La Scala

Contatto : metmap@orbifly.com




FONTI E CREDITI :

   NOAA       Earth
Advisory